sensor_id;sensor_type;location;lat;lon;timestamp;P1;durP1;ratioP1;P2;durP2;ratioP2
52972;SDS011;38837;48.916;2.336;2023-07-02T00:01:31;43.65;;;22.10;;
52972;SDS011;38837;48.916;2.336;2023-07-02T00:03:33;49.85;;;25.25;;
52972;SDS011;38837;48.916;2.336;2023-07-02T00:05:35;50.53;;;23.38;;
52972;SDS011;38837;48.916;2.336;2023-07-02T00:07:38;49.05;;;24.83;;
52972;SDS011;38837;48.916;2.336;2023-07-02T00:09:40;50.05;;;23.73;;
52972;SDS011;38837;48.916;2.336;2023-07-02T00:11:43;44.60;;;23.05;;
52972;SDS011;38837;48.916;2.336;2023-07-02T00:13:47;52.72;;;24.05;;
52972;SDS011;38837;48.916;2.336;2023-07-02T00:15:48;51.75;;;24.05;;
52972;SDS011;38837;48.916;2.336;2023-07-02T00:17:50;47.15;;;23.17;;
52972;SDS011;38837;48.916;2.336;2023-07-02T00:19:53;50.28;;;24.42;;
52972;SDS011;38837;48.916;2.336;2023-07-02T00:21:54;48.92;;;22.75;;
52972;SDS011;38837;48.916;2.336;2023-07-02T00:23:57;42.65;;;22.65;;
52972;SDS011;38837;48.916;2.336;2023-07-02T00:25:59;51.03;;;24.58;;
52972;SDS011;38837;48.916;2.336;2023-07-02T00:28:01;49.30;;;23.52;;
52972;SDS011;38837;48.916;2.336;2023-07-02T00:30:03;57.65;;;25.05;;
52972;SDS011;38837;48.916;2.336;2023-07-02T00:32:06;50.65;;;23.50;;
52972;SDS011;38837;48.916;2.336;2023-07-02T00:34:08;49.03;;;22.85;;
52972;SDS011;38837;48.916;2.336;2023-07-02T00:36:09;44.40;;;22.08;;
52972;SDS011;38837;48.916;2.336;2023-07-02T00:38:15;48.13;;;24.05;;
52972;SDS011;38837;48.916;2.336;2023-07-02T00:40:17;51.60;;;23.95;;
52972;SDS011;38837;48.916;2.336;2023-07-02T00:42:19;53.58;;;24.75;;
52972;SDS011;38837;48.916;2.336;2023-07-02T00:44:21;46.70;;;23.58;;
52972;SDS011;38837;48.916;2.336;2023-07-02T00:46:26;51.20;;;23.27;;
52972;SDS011;38837;48.916;2.336;2023-07-02T00:48:28;55.97;;;25.50;;
52972;SDS011;38837;48.916;2.336;2023-07-02T00:50:31;52.75;;;25.25;;
52972;SDS011;38837;48.916;2.336;2023-07-02T00:52:33;58.97;;;25.90;;
52972;SDS011;38837;48.916;2.336;2023-07-02T00:54:35;55.08;;;23.73;;
52972;SDS011;38837;48.916;2.336;2023-07-02T00:56:38;50.95;;;23.23;;
52972;SDS011;38837;48.916;2.336;2023-07-02T00:58:40;53.60;;;24.73;;
52972;SDS011;38837;48.916;2.336;2023-07-02T01:00:51;49.67;;;25.25;;
52972;SDS011;38837;48.916;2.336;2023-07-02T01:02:55;55.95;;;26.23;;
52972;SDS011;38837;48.916;2.336;2023-07-02T01:05:00;52.80;;;24.48;;
52972;SDS011;38837;48.916;2.336;2023-07-02T01:07:03;49.80;;;26.23;;
52972;SDS011;38837;48.916;2.336;2023-07-02T01:09:10;59.60;;;26.88;;
52972;SDS011;38837;48.916;2.336;2023-07-02T01:11:12;54.67;;;27.05;;
52972;SDS011;38837;48.916;2.336;2023-07-02T01:13:14;52.05;;;26.40;;
52972;SDS011;38837;48.916;2.336;2023-07-02T01:15:22;55.95;;;27.77;;
52972;SDS011;38837;48.916;2.336;2023-07-02T01:17:24;58.75;;;28.08;;
52972;SDS011;38837;48.916;2.336;2023-07-02T01:21:35;56.03;;;27.17;;
52972;SDS011;38837;48.916;2.336;2023-07-02T01:23:37;53.42;;;27.30;;
52972;SDS011;38837;48.916;2.336;2023-07-02T01:25:40;55.33;;;26.75;;
52972;SDS011;38837;48.916;2.336;2023-07-02T01:27:41;56.10;;;27.73;;
52972;SDS011;38837;48.916;2.336;2023-07-02T01:29:44;56.03;;;27.58;;
52972;SDS011;38837;48.916;2.336;2023-07-02T01:31:48;56.70;;;27.85;;
52972;SDS011;38837;48.916;2.336;2023-07-02T01:33:50;59.70;;;28.73;;
52972;SDS011;38837;48.916;2.336;2023-07-02T01:35:52;53.45;;;27.55;;
52972;SDS011;38837;48.916;2.336;2023-07-02T01:37:54;59.15;;;28.50;;
52972;SDS011;38837;48.916;2.336;2023-07-02T01:39:56;58.95;;;28.77;;
52972;SDS011;38837;48.916;2.336;2023-07-02T01:42:11;54.95;;;28.55;;
52972;SDS011;38837;48.916;2.336;2023-07-02T01:44:17;62.58;;;28.55;;
52972;SDS011;38837;48.916;2.336;2023-07-02T01:46:19;58.90;;;28.10;;
52972;SDS011;38837;48.916;2.336;2023-07-02T01:48:22;53.00;;;27.42;;
52972;SDS011;38837;48.916;2.336;2023-07-02T01:50:24;56.70;;;28.02;;
52972;SDS011;38837;48.916;2.336;2023-07-02T01:52:25;59.15;;;28.05;;
52972;SDS011;38837;48.916;2.336;2023-07-02T01:54:27;55.90;;;27.77;;
52972;SDS011;38837;48.916;2.336;2023-07-02T01:56:30;55.72;;;26.00;;
52972;SDS011;38837;48.916;2.336;2023-07-02T01:58:32;57.60;;;25.95;;
52972;SDS011;38837;48.916;2.336;2023-07-02T02:00:34;52.42;;;25.33;;
52972;SDS011;38837;48.916;2.336;2023-07-02T02:02:36;53.88;;;25.23;;
52972;SDS011;38837;48.916;2.336;2023-07-02T02:04:37;54.08;;;25.35;;
52972;SDS011;38837;48.916;2.336;2023-07-02T02:06:40;50.42;;;24.30;;
52972;SDS011;38837;48.916;2.336;2023-07-02T02:08:42;50.25;;;24.95;;
52972;SDS011;38837;48.916;2.336;2023-07-02T02:10:44;50.03;;;24.15;;
52972;SDS011;38837;48.916;2.336;2023-07-02T02:12:46;48.65;;;23.52;;
52972;SDS011;38837;48.916;2.336;2023-07-02T02:14:48;48.10;;;24.17;;
52972;SDS011;38837;48.916;2.336;2023-07-02T02:16:50;49.00;;;23.25;;
52972;SDS011;38837;48.916;2.336;2023-07-02T02:18:52;50.67;;;24.02;;
52972;SDS011;38837;48.916;2.336;2023-07-02T02:20:54;52.83;;;22.98;;
52972;SDS011;38837;48.916;2.336;2023-07-02T02:22:56;55.17;;;23.92;;
52972;SDS011;38837;48.916;2.336;2023-07-02T02:24:58;55.13;;;24.38;;
52972;SDS011;38837;48.916;2.336;2023-07-02T02:27:00;48.20;;;23.33;;
52972;SDS011;38837;48.916;2.336;2023-07-02T02:29:02;55.00;;;24.85;;
52972;SDS011;38837;48.916;2.336;2023-07-02T02:31:04;52.90;;;22.60;;
52972;SDS011;38837;48.916;2.336;2023-07-02T02:33:06;50.03;;;22.83;;
52972;SDS011;38837;48.916;2.336;2023-07-02T02:35:08;56.00;;;22.85;;
52972;SDS011;38837;48.916;2.336;2023-07-02T02:37:10;51.45;;;21.77;;
52972;SDS011;38837;48.916;2.336;2023-07-02T02:39:12;49.00;;;22.40;;
52972;SDS011;38837;48.916;2.336;2023-07-02T02:41:14;47.80;;;21.73;;
52972;SDS011;38837;48.916;2.336;2023-07-02T02:43:16;52.03;;;21.83;;
52972;SDS011;38837;48.916;2.336;2023-07-02T02:45:18;55.88;;;22.92;;
52972;SDS011;38837;48.916;2.336;2023-07-02T02:47:20;49.30;;;22.10;;
52972;SDS011;38837;48.916;2.336;2023-07-02T02:49:22;46.20;;;21.55;;
52972;SDS011;38837;48.916;2.336;2023-07-02T02:51:24;55.70;;;21.35;;
52972;SDS011;38837;48.916;2.336;2023-07-02T02:53:26;45.33;;;20.92;;
52972;SDS011;38837;48.916;2.336;2023-07-02T02:55:27;41.92;;;20.17;;
52972;SDS011;38837;48.916;2.336;2023-07-02T02:57:29;49.80;;;21.38;;
52972;SDS011;38837;48.916;2.336;2023-07-02T02:59:31;44.45;;;20.00;;
52972;SDS011;38837;48.916;2.336;2023-07-02T03:01:33;42.50;;;20.23;;
52972;SDS011;38837;48.916;2.336;2023-07-02T03:03:36;50.40;;;21.75;;
52972;SDS011;38837;48.916;2.336;2023-07-02T03:05:46;44.53;;;19.48;;
52972;SDS011;38837;48.916;2.336;2023-07-02T03:07:50;41.88;;;19.08;;
52972;SDS011;38837;48.916;2.336;2023-07-02T03:09:52;51.83;;;20.85;;
52972;SDS011;38837;48.916;2.336;2023-07-02T03:11:54;47.67;;;20.75;;
52972;SDS011;38837;48.916;2.336;2023-07-02T03:13:55;43.33;;;21.00;;
52972;SDS011;38837;48.916;2.336;2023-07-02T03:15:58;48.80;;;21.42;;
52972;SDS011;38837;48.916;2.336;2023-07-02T03:18:00;46.65;;;18.77;;
52972;SDS011;38837;48.916;2.336;2023-07-02T03:20:02;45.33;;;20.33;;
52972;SDS011;38837;48.916;2.336;2023-07-02T03:22:05;41.33;;;19.48;;
52972;SDS011;38837;48.916;2.336;2023-07-02T03:24:07;41.58;;;19.00;;
52972;SDS011;38837;48.916;2.336;2023-07-02T03:26:10;48.80;;;20.48;;
52972;SDS011;38837;48.916;2.336;2023-07-02T03:28:12;44.53;;;18.88;;
52972;SDS011;38837;48.916;2.336;2023-07-02T03:30:14;44.13;;;18.92;;
52972;SDS011;38837;48.916;2.336;2023-07-02T03:32:16;48.30;;;20.33;;
52972;SDS011;38837;48.916;2.336;2023-07-02T03:34:18;42.35;;;19.15;;
52972;SDS011;38837;48.916;2.336;2023-07-02T03:36:20;43.95;;;19.23;;
52972;SDS011;38837;48.916;2.336;2023-07-02T03:38:22;45.22;;;20.42;;
52972;SDS011;38837;48.916;2.336;2023-07-02T03:40:24;47.05;;;20.42;;
52972;SDS011;38837;48.916;2.336;2023-07-02T03:42:26;48.50;;;19.92;;
52972;SDS011;38837;48.916;2.336;2023-07-02T03:44:28;44.80;;;19.75;;
52972;SDS011;38837;48.916;2.336;2023-07-02T03:46:29;44.75;;;19.85;;
52972;SDS011;38837;48.916;2.336;2023-07-02T03:48:32;43.55;;;19.17;;
52972;SDS011;38837;48.916;2.336;2023-07-02T03:50:34;44.05;;;19.60;;
52972;SDS011;38837;48.916;2.336;2023-07-02T03:52:36;48.20;;;20.38;;
52972;SDS011;38837;48.916;2.336;2023-07-02T03:54:38;42.75;;;18.40;;
52972;SDS011;38837;48.916;2.336;2023-07-02T03:56:40;45.85;;;19.13;;
52972;SDS011;38837;48.916;2.336;2023-07-02T03:58:41;46.03;;;19.50;;
52972;SDS011;38837;48.916;2.336;2023-07-02T04:00:44;45.83;;;19.17;;
52972;SDS011;38837;48.916;2.336;2023-07-02T04:02:45;38.72;;;18.45;;
52972;SDS011;38837;48.916;2.336;2023-07-02T04:04:47;39.22;;;18.58;;
52972;SDS011;38837;48.916;2.336;2023-07-02T04:06:49;50.80;;;20.67;;
52972;SDS011;38837;48.916;2.336;2023-07-02T04:08:51;46.78;;;18.33;;
52972;SDS011;38837;48.916;2.336;2023-07-02T04:10:54;42.80;;;18.85;;
52972;SDS011;38837;48.916;2.336;2023-07-02T04:12:55;42.63;;;19.38;;
52972;SDS011;38837;48.916;2.336;2023-07-02T04:14:57;44.08;;;19.08;;
52972;SDS011;38837;48.916;2.336;2023-07-02T04:17:01;38.47;;;18.08;;
52972;SDS011;38837;48.916;2.336;2023-07-02T04:19:05;40.90;;;19.13;;
52972;SDS011;38837;48.916;2.336;2023-07-02T04:21:07;45.47;;;18.23;;
52972;SDS011;38837;48.916;2.336;2023-07-02T04:23:08;45.25;;;18.10;;
52972;SDS011;38837;48.916;2.336;2023-07-02T04:25:14;43.75;;;17.50;;
52972;SDS011;38837;48.916;2.336;2023-07-02T04:27:36;42.55;;;18.05;;
52972;SDS011;38837;48.916;2.336;2023-07-02T04:29:52;40.92;;;19.58;;
52972;SDS011;38837;48.916;2.336;2023-07-02T04:31:56;43.30;;;18.55;;
52972;SDS011;38837;48.916;2.336;2023-07-02T04:33:58;42.30;;;19.08;;
52972;SDS011;38837;48.916;2.336;2023-07-02T04:36:01;37.67;;;16.90;;
52972;SDS011;38837;48.916;2.336;2023-07-02T04:38:06;36.10;;;17.05;;
52972;SDS011;38837;48.916;2.336;2023-07-02T04:40:08;34.53;;;17.40;;
52972;SDS011;38837;48.916;2.336;2023-07-02T04:42:11;40.63;;;16.65;;
52972;SDS011;38837;48.916;2.336;2023-07-02T04:44:14;36.95;;;17.08;;
52972;SDS011;38837;48.916;2.336;2023-07-02T04:46:16;41.13;;;16.85;;
52972;SDS011;38837;48.916;2.336;2023-07-02T04:48:19;35.72;;;17.13;;
52972;SDS011;38837;48.916;2.336;2023-07-02T04:50:21;39.78;;;18.15;;
52972;SDS011;38837;48.916;2.336;2023-07-02T04:52:23;39.88;;;17.77;;
52972;SDS011;38837;48.916;2.336;2023-07-02T04:54:25;38.28;;;17.48;;
52972;SDS011;38837;48.916;2.336;2023-07-02T04:56:27;35.72;;;16.50;;
52972;SDS011;38837;48.916;2.336;2023-07-02T04:58:28;36.55;;;16.33;;
52972;SDS011;38837;48.916;2.336;2023-07-02T05:00:31;39.97;;;17.40;;
52972;SDS011;38837;48.916;2.336;2023-07-02T05:02:32;40.75;;;16.95;;
52972;SDS011;38837;48.916;2.336;2023-07-02T05:04:35;43.33;;;17.05;;
52972;SDS011;38837;48.916;2.336;2023-07-02T05:06:38;43.45;;;17.40;;
52972;SDS011;38837;48.916;2.336;2023-07-02T05:08:40;50.40;;;16.15;;
52972;SDS011;38837;48.916;2.336;2023-07-02T05:10:43;38.72;;;16.73;;
52972;SDS011;38837;48.916;2.336;2023-07-02T05:12:46;38.63;;;16.42;;
52972;SDS011;38837;48.916;2.336;2023-07-02T05:14:48;39.53;;;17.02;;
52972;SDS011;38837;48.916;2.336;2023-07-02T05:16:50;37.35;;;16.95;;
52972;SDS011;38837;48.916;2.336;2023-07-02T05:18:52;38.30;;;15.90;;
52972;SDS011;38837;48.916;2.336;2023-07-02T05:20:53;36.80;;;16.13;;
52972;SDS011;38837;48.916;2.336;2023-07-02T05:22:55;31.33;;;15.77;;
52972;SDS011;38837;48.916;2.336;2023-07-02T05:24:57;46.08;;;17.35;;
52972;SDS011;38837;48.916;2.336;2023-07-02T05:26:59;40.10;;;16.25;;
52972;SDS011;38837;48.916;2.336;2023-07-02T05:29:01;41.28;;;17.52;;
52972;SDS011;38837;48.916;2.336;2023-07-02T05:31:03;40.28;;;17.25;;
52972;SDS011;38837;48.916;2.336;2023-07-02T05:33:05;36.80;;;16.00;;
52972;SDS011;38837;48.916;2.336;2023-07-02T05:35:07;38.13;;;15.60;;
52972;SDS011;38837;48.916;2.336;2023-07-02T05:37:09;43.47;;;17.38;;
52972;SDS011;38837;48.916;2.336;2023-07-02T05:39:11;36.15;;;16.27;;
52972;SDS011;38837;48.916;2.336;2023-07-02T05:41:19;42.97;;;17.17;;
52972;SDS011;38837;48.916;2.336;2023-07-02T05:43:21;38.30;;;15.80;;
52972;SDS011;38837;48.916;2.336;2023-07-02T05:45:23;37.05;;;15.82;;
52972;SDS011;38837;48.916;2.336;2023-07-02T05:47:25;38.08;;;17.35;;
52972;SDS011;38837;48.916;2.336;2023-07-02T05:49:30;39.10;;;16.02;;
52972;SDS011;38837;48.916;2.336;2023-07-02T05:51:32;35.40;;;16.35;;
52972;SDS011;38837;48.916;2.336;2023-07-02T05:53:34;41.10;;;16.77;;
52972;SDS011;38837;48.916;2.336;2023-07-02T05:55:38;38.65;;;16.63;;
52972;SDS011;38837;48.916;2.336;2023-07-02T05:57:40;33.25;;;15.73;;
52972;SDS011;38837;48.916;2.336;2023-07-02T05:59:42;41.67;;;17.52;;
52972;SDS011;38837;48.916;2.336;2023-07-02T06:01:44;38.45;;;16.70;;
52972;SDS011;38837;48.916;2.336;2023-07-02T06:03:48;43.00;;;16.25;;
52972;SDS011;38837;48.916;2.336;2023-07-02T06:05:51;37.35;;;15.27;;
52972;SDS011;38837;48.916;2.336;2023-07-02T06:07:53;39.50;;;16.60;;
52972;SDS011;38837;48.916;2.336;2023-07-02T06:09:55;37.78;;;15.70;;
52972;SDS011;38837;48.916;2.336;2023-07-02T06:11:57;41.55;;;15.35;;
52972;SDS011;38837;48.916;2.336;2023-07-02T06:13:59;37.47;;;16.52;;
52972;SDS011;38837;48.916;2.336;2023-07-02T06:16:01;37.50;;;16.00;;
52972;SDS011;38837;48.916;2.336;2023-07-02T06:18:03;39.03;;;16.25;;
52972;SDS011;38837;48.916;2.336;2023-07-02T06:20:06;41.45;;;16.98;;
52972;SDS011;38837;48.916;2.336;2023-07-02T06:22:09;39.03;;;14.85;;
52972;SDS011;38837;48.916;2.336;2023-07-02T06:24:10;33.47;;;16.20;;
52972;SDS011;38837;48.916;2.336;2023-07-02T06:26:12;35.40;;;15.48;;
52972;SDS011;38837;48.916;2.336;2023-07-02T06:28:14;34.90;;;15.02;;
52972;SDS011;38837;48.916;2.336;2023-07-02T06:30:16;34.03;;;15.02;;
52972;SDS011;38837;48.916;2.336;2023-07-02T06:32:18;38.80;;;16.10;;
52972;SDS011;38837;48.916;2.336;2023-07-02T06:34:20;43.63;;;15.20;;
52972;SDS011;38837;48.916;2.336;2023-07-02T06:36:22;31.58;;;15.38;;
52972;SDS011;38837;48.916;2.336;2023-07-02T06:38:24;38.58;;;15.48;;
52972;SDS011;38837;48.916;2.336;2023-07-02T06:40:26;39.70;;;16.33;;
52972;SDS011;38837;48.916;2.336;2023-07-02T06:42:28;37.00;;;15.75;;
52972;SDS011;38837;48.916;2.336;2023-07-02T06:44:30;36.67;;;15.38;;
52972;SDS011;38837;48.916;2.336;2023-07-02T06:46:32;31.88;;;16.20;;
52972;SDS011;38837;48.916;2.336;2023-07-02T06:48:34;37.35;;;15.48;;
52972;SDS011;38837;48.916;2.336;2023-07-02T06:50:36;38.75;;;15.98;;
52972;SDS011;38837;48.916;2.336;2023-07-02T06:52:37;32.92;;;16.27;;
52972;SDS011;38837;48.916;2.336;2023-07-02T06:54:39;34.13;;;14.82;;
52972;SDS011;38837;48.916;2.336;2023-07-02T06:56:43;40.28;;;16.63;;
52972;SDS011;38837;48.916;2.336;2023-07-02T06:58:45;38.83;;;16.10;;
52972;SDS011;38837;48.916;2.336;2023-07-02T07:00:47;35.63;;;16.17;;
52972;SDS011;38837;48.916;2.336;2023-07-02T07:02:49;40.95;;;16.88;;
52972;SDS011;38837;48.916;2.336;2023-07-02T07:04:51;37.47;;;14.98;;
52972;SDS011;38837;48.916;2.336;2023-07-02T07:06:53;34.22;;;15.77;;
52972;SDS011;38837;48.916;2.336;2023-07-02T07:08:56;36.45;;;15.95;;
52972;SDS011;38837;48.916;2.336;2023-07-02T07:10:58;31.85;;;16.10;;
52972;SDS011;38837;48.916;2.336;2023-07-02T07:13:01;38.22;;;16.67;;
52972;SDS011;38837;48.916;2.336;2023-07-02T07:15:03;38.40;;;16.63;;
52972;SDS011;38837;48.916;2.336;2023-07-02T07:17:06;40.95;;;16.25;;
52972;SDS011;38837;48.916;2.336;2023-07-02T07:19:08;34.95;;;14.80;;
52972;SDS011;38837;48.916;2.336;2023-07-02T07:21:10;37.05;;;15.43;;
52972;SDS011;38837;48.916;2.336;2023-07-02T07:23:12;41.22;;;15.88;;
52972;SDS011;38837;48.916;2.336;2023-07-02T07:25:14;34.45;;;16.45;;
52972;SDS011;38837;48.916;2.336;2023-07-02T07:27:19;31.70;;;14.82;;
52972;SDS011;38837;48.916;2.336;2023-07-02T07:29:21;36.78;;;16.27;;
52972;SDS011;38837;48.916;2.336;2023-07-02T07:31:24;40.15;;;16.45;;
52972;SDS011;38837;48.916;2.336;2023-07-02T07:33:26;35.55;;;15.23;;
52972;SDS011;38837;48.916;2.336;2023-07-02T07:35:28;39.83;;;16.15;;
52972;SDS011;38837;48.916;2.336;2023-07-02T07:37:30;40.85;;;16.52;;
52972;SDS011;38837;48.916;2.336;2023-07-02T07:39:32;42.45;;;17.15;;
52972;SDS011;38837;48.916;2.336;2023-07-02T07:41:34;30.50;;;15.52;;
52972;SDS011;38837;48.916;2.336;2023-07-02T07:43:36;39.60;;;16.77;;
52972;SDS011;38837;48.916;2.336;2023-07-02T07:45:37;38.97;;;16.63;;
52972;SDS011;38837;48.916;2.336;2023-07-02T07:47:39;37.90;;;15.45;;
52972;SDS011;38837;48.916;2.336;2023-07-02T07:49:41;33.30;;;15.68;;
52972;SDS011;38837;48.916;2.336;2023-07-02T07:51:43;38.72;;;16.08;;
52972;SDS011;38837;48.916;2.336;2023-07-02T07:53:45;45.05;;;17.90;;
52972;SDS011;38837;48.916;2.336;2023-07-02T07:55:47;35.08;;;15.27;;
52972;SDS011;38837;48.916;2.336;2023-07-02T07:57:49;36.80;;;15.77;;
52972;SDS011;38837;48.916;2.336;2023-07-02T07:59:51;36.15;;;15.73;;
52972;SDS011;38837;48.916;2.336;2023-07-02T08:01:53;34.92;;;16.77;;
52972;SDS011;38837;48.916;2.336;2023-07-02T08:03:55;35.65;;;15.43;;
52972;SDS011;38837;48.916;2.336;2023-07-02T08:05:57;37.78;;;15.77;;
52972;SDS011;38837;48.916;2.336;2023-07-02T08:07:59;39.00;;;15.90;;
52972;SDS011;38837;48.916;2.336;2023-07-02T08:10:01;32.83;;;15.70;;
52972;SDS011;38837;48.916;2.336;2023-07-02T08:12:04;39.25;;;16.45;;
52972;SDS011;38837;48.916;2.336;2023-07-02T08:14:06;39.83;;;17.15;;
52972;SDS011;38837;48.916;2.336;2023-07-02T08:16:08;37.10;;;16.27;;
52972;SDS011;38837;48.916;2.336;2023-07-02T08:18:11;38.45;;;15.88;;
52972;SDS011;38837;48.916;2.336;2023-07-02T08:20:14;34.50;;;17.23;;
52972;SDS011;38837;48.916;2.336;2023-07-02T08:22:18;39.60;;;16.60;;
52972;SDS011;38837;48.916;2.336;2023-07-02T08:24:20;39.83;;;15.85;;
52972;SDS011;38837;48.916;2.336;2023-07-02T08:26:21;36.13;;;15.93;;
52972;SDS011;38837;48.916;2.336;2023-07-02T08:28:23;35.58;;;15.98;;
52972;SDS011;38837;48.916;2.336;2023-07-02T08:30:25;37.75;;;15.57;;
52972;SDS011;38837;48.916;2.336;2023-07-02T08:32:27;44.08;;;17.63;;
52972;SDS011;38837;48.916;2.336;2023-07-02T08:34:29;35.28;;;15.40;;
52972;SDS011;38837;48.916;2.336;2023-07-02T08:36:31;42.42;;;17.35;;
52972;SDS011;38837;48.916;2.336;2023-07-02T08:38:33;34.58;;;15.68;;
52972;SDS011;38837;48.916;2.336;2023-07-02T08:40:35;35.42;;;16.85;;
52972;SDS011;38837;48.916;2.336;2023-07-02T08:42:36;35.08;;;15.02;;
52972;SDS011;38837;48.916;2.336;2023-07-02T08:44:47;38.22;;;16.35;;
52972;SDS011;38837;48.916;2.336;2023-07-02T08:46:54;26.00;;;14.52;;
52972;SDS011;38837;48.916;2.336;2023-07-02T08:48:58;40.08;;;15.77;;
52972;SDS011;38837;48.916;2.336;2023-07-02T08:51:00;39.13;;;16.05;;
52972;SDS011;38837;48.916;2.336;2023-07-02T08:53:03;33.83;;;16.30;;
52972;SDS011;38837;48.916;2.336;2023-07-02T08:55:05;35.42;;;15.75;;
52972;SDS011;38837;48.916;2.336;2023-07-02T08:57:09;40.53;;;16.35;;
52972;SDS011;38837;48.916;2.336;2023-07-02T08:59:11;32.60;;;14.60;;
52972;SDS011;38837;48.916;2.336;2023-07-02T09:01:13;37.45;;;16.35;;
52972;SDS011;38837;48.916;2.336;2023-07-02T09:03:15;35.22;;;15.43;;
52972;SDS011;38837;48.916;2.336;2023-07-02T09:05:17;36.90;;;16.08;;
52972;SDS011;38837;48.916;2.336;2023-07-02T09:07:19;36.72;;;16.05;;
52972;SDS011;38837;48.916;2.336;2023-07-02T09:09:21;37.15;;;15.27;;
52972;SDS011;38837;48.916;2.336;2023-07-02T09:11:23;40.22;;;15.82;;
52972;SDS011;38837;48.916;2.336;2023-07-02T09:13:25;38.97;;;15.95;;
52972;SDS011;38837;48.916;2.336;2023-07-02T09:15:27;37.55;;;16.48;;
52972;SDS011;38837;48.916;2.336;2023-07-02T09:17:40;28.75;;;15.18;;
52972;SDS011;38837;48.916;2.336;2023-07-02T09:19:49;30.30;;;14.25;;
52972;SDS011;38837;48.916;2.336;2023-07-02T09:21:52;30.60;;;13.90;;
52972;SDS011;38837;48.916;2.336;2023-07-02T09:23:54;35.13;;;15.75;;
52972;SDS011;38837;48.916;2.336;2023-07-02T09:25:57;32.25;;;14.77;;
52972;SDS011;38837;48.916;2.336;2023-07-02T09:27:58;28.25;;;13.30;;
52972;SDS011;38837;48.916;2.336;2023-07-02T09:30:05;32.38;;;14.07;;
52972;SDS011;38837;48.916;2.336;2023-07-02T09:32:11;35.80;;;14.20;;
52972;SDS011;38837;48.916;2.336;2023-07-02T09:34:13;35.00;;;14.75;;
52972;SDS011;38837;48.916;2.336;2023-07-02T09:36:16;32.45;;;15.60;;
52972;SDS011;38837;48.916;2.336;2023-07-02T09:38:21;36.47;;;14.50;;
52972;SDS011;38837;48.916;2.336;2023-07-02T09:40:23;29.98;;;14.10;;
52972;SDS011;38837;48.916;2.336;2023-07-02T09:42:26;30.07;;;13.93;;
52972;SDS011;38837;48.916;2.336;2023-07-02T09:44:30;31.25;;;14.45;;
52972;SDS011;38837;48.916;2.336;2023-07-02T09:46:34;33.78;;;15.07;;
52972;SDS011;38837;48.916;2.336;2023-07-02T09:48:47;31.10;;;13.73;;
52972;SDS011;38837;48.916;2.336;2023-07-02T09:50:50;32.47;;;12.88;;
52972;SDS011;38837;48.916;2.336;2023-07-02T09:52:52;34.70;;;14.53;;
52972;SDS011;38837;48.916;2.336;2023-07-02T09:54:54;26.85;;;13.50;;
52972;SDS011;38837;48.916;2.336;2023-07-02T09:56:58;30.48;;;13.35;;
52972;SDS011;38837;48.916;2.336;2023-07-02T09:59:00;28.00;;;13.82;;
52972;SDS011;38837;48.916;2.336;2023-07-02T10:01:02;40.35;;;14.77;;
52972;SDS011;38837;48.916;2.336;2023-07-02T10:03:04;25.77;;;12.90;;
52972;SDS011;38837;48.916;2.336;2023-07-02T10:05:06;27.20;;;13.15;;
52972;SDS011;38837;48.916;2.336;2023-07-02T10:07:09;32.22;;;13.60;;
52972;SDS011;38837;48.916;2.336;2023-07-02T10:09:11;32.97;;;13.82;;
52972;SDS011;38837;48.916;2.336;2023-07-02T10:11:13;31.83;;;14.18;;
52972;SDS011;38837;48.916;2.336;2023-07-02T10:13:26;34.10;;;14.23;;
52972;SDS011;38837;48.916;2.336;2023-07-02T10:15:28;39.00;;;13.52;;
52972;SDS011;38837;48.916;2.336;2023-07-02T10:17:35;34.20;;;13.73;;
52972;SDS011;38837;48.916;2.336;2023-07-02T10:19:48;28.48;;;12.80;;
52972;SDS011;38837;48.916;2.336;2023-07-02T10:22:02;32.75;;;13.20;;
52972;SDS011;38837;48.916;2.336;2023-07-02T10:24:23;29.27;;;12.48;;
52972;SDS011;38837;48.916;2.336;2023-07-02T10:26:25;31.98;;;12.82;;
52972;SDS011;38837;48.916;2.336;2023-07-02T10:28:28;28.17;;;12.27;;
52972;SDS011;38837;48.916;2.336;2023-07-02T10:30:36;25.08;;;12.73;;
52972;SDS011;38837;48.916;2.336;2023-07-02T10:32:38;30.08;;;12.60;;
52972;SDS011;38837;48.916;2.336;2023-07-02T10:34:41;35.35;;;12.73;;
52972;SDS011;38837;48.916;2.336;2023-07-02T10:36:42;36.35;;;14.23;;
52972;SDS011;38837;48.916;2.336;2023-07-02T10:38:44;39.72;;;14.35;;
52972;SDS011;38837;48.916;2.336;2023-07-02T10:40:46;32.97;;;13.18;;
52972;SDS011;38837;48.916;2.336;2023-07-02T10:42:54;29.25;;;13.48;;
52972;SDS011;38837;48.916;2.336;2023-07-02T10:44:56;31.83;;;13.82;;
52972;SDS011;38837;48.916;2.336;2023-07-02T10:46:58;32.92;;;13.80;;
52972;SDS011;38837;48.916;2.336;2023-07-02T10:49:00;31.98;;;13.07;;
52972;SDS011;38837;48.916;2.336;2023-07-02T10:51:10;35.88;;;13.52;;
52972;SDS011;38837;48.916;2.336;2023-07-02T10:53:16;34.63;;;13.02;;
52972;SDS011;38837;48.916;2.336;2023-07-02T10:55:19;34.08;;;13.25;;
52972;SDS011;38837;48.916;2.336;2023-07-02T10:57:22;33.08;;;12.65;;
52972;SDS011;38837;48.916;2.336;2023-07-02T10:59:24;39.17;;;14.93;;
52972;SDS011;38837;48.916;2.336;2023-07-02T11:01:27;27.88;;;12.02;;
52972;SDS011;38837;48.916;2.336;2023-07-02T11:05:33;29.75;;;11.65;;
52972;SDS011;38837;48.916;2.336;2023-07-02T11:07:35;31.80;;;12.68;;
52972;SDS011;38837;48.916;2.336;2023-07-02T11:09:37;31.75;;;13.27;;
52972;SDS011;38837;48.916;2.336;2023-07-02T11:11:48;33.53;;;13.82;;
52972;SDS011;38837;48.916;2.336;2023-07-02T11:13:54;34.58;;;13.38;;
52972;SDS011;38837;48.916;2.336;2023-07-02T11:15:56;32.45;;;12.75;;
52972;SDS011;38837;48.916;2.336;2023-07-02T11:18:08;27.83;;;11.95;;
52972;SDS011;38837;48.916;2.336;2023-07-02T11:20:13;29.85;;;12.63;;
52972;SDS011;38837;48.916;2.336;2023-07-02T11:22:16;29.63;;;12.70;;
52972;SDS011;38837;48.916;2.336;2023-07-02T11:28:47;26.70;;;11.43;;
52972;SDS011;38837;48.916;2.336;2023-07-02T11:30:51;34.67;;;13.50;;
52972;SDS011;38837;48.916;2.336;2023-07-02T11:32:54;34.83;;;13.25;;
52972;SDS011;38837;48.916;2.336;2023-07-02T11:34:57;27.85;;;12.13;;
52972;SDS011;38837;48.916;2.336;2023-07-02T11:36:59;27.92;;;11.52;;
52972;SDS011;38837;48.916;2.336;2023-07-02T11:39:00;36.15;;;12.85;;
52972;SDS011;38837;48.916;2.336;2023-07-02T11:41:03;36.72;;;12.85;;
52972;SDS011;38837;48.916;2.336;2023-07-02T11:43:05;31.50;;;12.73;;
52972;SDS011;38837;48.916;2.336;2023-07-02T11:45:07;29.40;;;14.07;;
52972;SDS011;38837;48.916;2.336;2023-07-02T11:47:10;33.58;;;13.18;;
52972;SDS011;38837;48.916;2.336;2023-07-02T11:49:12;32.80;;;13.75;;
52972;SDS011;38837;48.916;2.336;2023-07-02T11:51:14;29.08;;;13.18;;
52972;SDS011;38837;48.916;2.336;2023-07-02T11:53:15;36.50;;;11.77;;
52972;SDS011;38837;48.916;2.336;2023-07-02T11:55:17;31.10;;;12.13;;
52972;SDS011;38837;48.916;2.336;2023-07-02T11:57:19;33.75;;;12.70;;
52972;SDS011;38837;48.916;2.336;2023-07-02T11:59:23;27.95;;;11.93;;
52972;SDS011;38837;48.916;2.336;2023-07-02T12:01:25;30.85;;;12.57;;
52972;SDS011;38837;48.916;2.336;2023-07-02T12:03:27;33.97;;;11.77;;
52972;SDS011;38837;48.916;2.336;2023-07-02T12:05:29;26.25;;;12.80;;
52972;SDS011;38837;48.916;2.336;2023-07-02T12:07:31;28.63;;;11.82;;